Greenisland, United Kingdom
Current Conditions -  °F | °C
As of 9:20 PM on Friday 24 Oct 2014 (Local Time) from EGAC Reporting Station
Scattered Clouds Scattered Clouds  
Wind Chill: 50°   Ceiling: Unl
Heat Index: 50°   Visibility: 6mi
Dew Point: 45°   Wind: 14mph
Humidity: 82%   Direction: 210°SSW
Pressure: 29.8"   Gusts: NA
Location:  54.7°N, 5.87°W
Report Text: EGAC 242020Z 21012KT 9999 FEW011 SCT044 10/07 Q1009
Loading
Personal Weather Stations






























Interactive Weather Map New forecast layout! Learn more

10-Day Weather Forecast

Advertisements
Track Severe Weather on mobile